Time;durP1;ratioP1;P1;durP2;ratioP2;P2;SDS_P1;SDS_P2;PMS_P1;PMS_P2;Temp;Humidity;BMP_temperature;BMP_pressure;BME280_temperature;BME280_humidity;BME280_pressure;Samples;Min_cycle;Max_cycle;Signal;HPM_P1;HPM_P2
2022/05/22 00:02:18;;;;;;;16.33;6.88;;;10.60;99.90;;;;;;5056806;28;20048;-52
2022/05/22 00:04:43;;;;;;;13.98;6.22;;;10.70;99.90;;;;;;5046350;28;20042;-54
2022/05/22 00:07:09;;;;;;;17.80;6.45;;;10.70;99.90;;;;;;5048112;28;20041;-53
2022/05/22 00:09:36;;;;;;;18.80;7.07;;;10.70;99.90;;;;;;5061043;28;20096;-53
2022/05/22 00:12:03;;;;;;;13.57;6.55;;;10.80;99.90;;;;;;5042915;28;20037;-53
2022/05/22 00:14:28;;;;;;;14.63;6.68;;;10.70;99.90;;;;;;5057721;28;20049;-54
2022/05/22 00:16:55;;;;;;;16.48;6.97;;;10.80;99.90;;;;;;5022731;28;20091;-54
2022/05/22 00:19:24;;;;;;;17.10;7.30;;;10.70;99.90;;;;;;5049271;28;20041;-53
2022/05/22 00:21:50;;;;;;;13.50;6.68;;;10.70;99.90;;;;;;5061126;28;20471;-53
2022/05/22 00:24:19;;;;;;;13.65;6.85;;;10.70;99.90;;;;;;5060884;28;20112;-53
2022/05/22 00:26:46;;;;;;;13.55;6.80;;;10.80;99.90;;;;;;5061399;28;20044;-53
2022/05/22 00:29:13;;;;;;;15.68;7.35;;;10.70;99.90;;;;;;5060328;28;20048;-52
2022/05/22 00:31:38;;;;;;;17.70;7.22;;;10.70;99.90;;;;;;5054913;28;20046;-53
2022/05/22 00:34:04;;;;;;;14.73;7.45;;;10.70;99.90;;;;;;5042192;28;20491;-53
2022/05/22 00:36:30;;;;;;;17.48;6.68;;;10.70;99.90;;;;;;5050362;28;20091;-53
2022/05/22 00:38:56;;;;;;;15.52;6.78;;;10.60;99.90;;;;;;5040914;28;20045;-53
2022/05/22 00:41:21;;;;;;;13.82;6.70;;;10.60;99.90;;;;;;5042595;28;20105;-54
2022/05/22 00:43:52;;;;;;;18.02;7.47;;;10.50;99.90;;;;;;5060270;28;20068;-52
2022/05/22 00:46:19;;;;;;;16.98;7.50;;;10.60;99.90;;;;;;5057342;28;20045;-53
2022/05/22 00:48:49;;;;;;;16.17;7.10;;;10.60;99.90;;;;;;5040445;28;20048;-52
2022/05/22 00:51:53;;;;;;;19.48;7.80;;;10.60;99.90;;;;;;5053251;28;20072;-53
2022/05/22 00:54:38;;;;;;;15.35;6.93;;;10.60;99.90;;;;;;5036892;28;20077;-52
2022/05/22 00:57:12;;;;;;;13.43;6.80;;;10.50;99.90;;;;;;5041031;28;20034;-53
2022/05/22 00:59:47;;;;;;;15.80;6.88;;;10.50;99.90;;;;;;5039641;28;20050;-53
2022/05/22 01:02:15;;;;;;;15.20;6.88;;;10.50;99.90;;;;;;5040367;28;20037;-53
2022/05/22 01:04:42;;;;;;;14.60;7.18;;;10.60;99.90;;;;;;5040177;28;20103;-52
2022/05/22 01:07:08;;;;;;;15.15;7.05;;;10.50;99.90;;;;;;5031602;28;20045;-53
2022/05/22 01:09:35;;;;;;;15.60;6.97;;;10.50;99.90;;;;;;5030783;28;20041;-52
2022/05/22 01:12:12;;;;;;;16.65;6.75;;;10.40;99.90;;;;;;5031156;28;20046;-54
2022/05/22 01:14:39;;;;;;;13.27;7.57;;;10.40;99.90;;;;;;5029902;28;20042;-54
2022/05/22 01:17:08;;;;;;;15.13;6.50;;;10.40;99.90;;;;;;5025058;28;20056;-53
2022/05/22 01:19:35;;;;;;;15.90;7.22;;;10.30;99.90;;;;;;5021669;28;20053;-53
2022/05/22 01:22:04;;;;;;;15.77;7.38;;;10.30;99.90;;;;;;5040229;28;20132;-53
2022/05/22 01:24:30;;;;;;;14.48;7.18;;;10.40;99.90;;;;;;5039709;28;20095;-53
2022/05/22 01:27:00;;;;;;;17.73;7.57;;;10.40;99.90;;;;;;5039196;28;20041;-52
2022/05/22 01:29:26;;;;;;;19.23;7.65;;;10.30;99.90;;;;;;5037073;28;20041;-53
2022/05/22 01:31:52;;;;;;;16.05;7.57;;;10.20;99.90;;;;;;5020620;28;20133;-53
2022/05/22 01:34:18;;;;;;;15.80;7.65;;;10.20;99.90;;;;;;5019608;28;20510;-53
2022/05/22 01:36:44;;;;;;;14.45;7.85;;;10.20;99.90;;;;;;5019842;28;20135;-53
2022/05/22 01:39:09;;;;;;;15.90;7.53;;;10.20;99.90;;;;;;5033962;28;20056;-51
2022/05/22 01:41:35;;;;;;;18.20;7.07;;;10.10;99.90;;;;;;5028703;28;20052;-52
2022/05/22 01:44:01;;;;;;;12.48;7.05;;;10.10;99.90;;;;;;5039977;28;20132;-53
2022/05/22 01:46:27;;;;;;;13.45;6.68;;;10.00;99.90;;;;;;5038503;28;20112;-53
2022/05/22 01:48:52;;;;;;;15.75;7.78;;;10.10;99.90;;;;;;5033470;28;20037;-52
2022/05/22 01:51:18;;;;;;;15.45;6.97;;;10.10;99.90;;;;;;5029900;28;20037;-53
2022/05/22 01:53:44;;;;;;;20.77;7.82;;;10.10;99.90;;;;;;5035711;28;20038;-52
2022/05/22 01:56:09;;;;;;;15.90;7.45;;;10.10;99.90;;;;;;5053582;28;20045;-53
2022/05/22 01:58:35;;;;;;;15.30;7.03;;;10.00;99.90;;;;;;5058263;28;20045;-53
2022/05/22 02:01:01;;;;;;;16.60;7.45;;;10.00;99.90;;;;;;5058834;28;20105;-52
2022/05/22 02:03:27;;;;;;;16.77;7.22;;;10.00;99.90;;;;;;5058414;28;20048;-53
2022/05/22 02:05:52;;;;;;;15.15;7.25;;;10.00;99.90;;;;;;5059742;28;20048;-54
2022/05/22 02:08:24;;;;;;;16.55;7.50;;;10.00;99.90;;;;;;5058397;28;20065;-51
2022/05/22 02:10:59;;;;;;;18.07;6.63;;;10.10;99.90;;;;;;5045087;28;20131;-53
2022/05/22 02:13:32;;;;;;;17.67;7.40;;;10.10;99.90;;;;;;5039994;28;20648;-53
2022/05/22 02:15:57;;;;;;;13.40;7.20;;;10.10;99.90;;;;;;5038576;28;20060;-53
2022/05/22 02:18:23;;;;;;;18.95;6.82;;;10.20;99.90;;;;;;5039362;28;20038;-53
2022/05/22 02:20:49;;;;;;;16.08;7.10;;;10.10;99.90;;;;;;5055908;28;20052;-54
2022/05/22 02:23:16;;;;;;;14.02;7.00;;;9.90;99.90;;;;;;5042695;28;20033;-54
2022/05/22 02:25:46;;;;;;;11.80;6.30;;;9.80;99.90;;;;;;5040492;28;20038;-53
2022/05/22 02:28:14;;;;;;;11.90;6.32;;;9.70;99.90;;;;;;5041113;28;20064;-54
2022/05/22 02:30:42;;;;;;;17.45;6.85;;;9.80;99.90;;;;;;5038905;28;20744;-51
2022/05/22 02:33:10;;;;;;;14.73;7.05;;;9.80;99.90;;;;;;5038008;28;20041;-54
2022/05/22 02:35:36;;;;;;;14.70;6.47;;;9.80;99.90;;;;;;5021506;28;20054;-52
2022/05/22 02:38:02;;;;;;;15.65;6.40;;;9.70;99.90;;;;;;5052787;28;20045;-54
2022/05/22 02:40:31;;;;;;;15.70;6.15;;;9.70;99.90;;;;;;5040293;28;20137;-54
2022/05/22 02:42:57;;;;;;;13.02;6.82;;;9.60;99.90;;;;;;5042598;28;20140;-53
2022/05/22 02:45:25;;;;;;;14.32;6.90;;;9.70;99.90;;;;;;5057740;28;20037;-53
2022/05/22 02:47:51;;;;;;;13.65;6.60;;;9.60;99.90;;;;;;5038864;28;20049;-53
2022/05/22 02:50:20;;;;;;;19.02;6.63;;;9.60;99.90;;;;;;5038079;28;20038;-53
2022/05/22 02:52:46;;;;;;;14.27;6.53;;;9.50;99.90;;;;;;5038724;28;20060;-54
2022/05/22 02:55:12;;;;;;;16.40;6.93;;;9.50;99.90;;;;;;5043234;28;20041;-52
2022/05/22 02:57:40;;;;;;;15.07;6.95;;;9.40;99.90;;;;;;5048490;28;20077;-53
2022/05/22 03:00:09;;;;;;;14.52;7.45;;;9.50;99.90;;;;;;5058001;28;20033;-53
2022/05/22 03:02:35;;;;;;;14.95;7.15;;;9.50;99.90;;;;;;5058025;28;20072;-52
2022/05/22 03:05:01;;;;;;;18.02;7.72;;;9.50;99.90;;;;;;5058387;28;20520;-52
2022/05/22 03:07:26;;;;;;;22.48;7.63;;;9.50;99.90;;;;;;5057614;28;20056;-53
2022/05/22 03:09:52;;;;;;;16.40;7.32;;;9.50;99.90;;;;;;5058587;28;20037;-52
2022/05/22 03:12:20;;;;;;;14.68;6.95;;;9.40;99.90;;;;;;5053809;28;20447;-53
2022/05/22 03:14:51;;;;;;;14.68;7.07;;;9.40;99.90;;;;;;5058570;28;20064;-53
2022/05/22 03:17:17;;;;;;;16.92;8.25;;;9.40;99.90;;;;;;5041984;28;20041;-52
2022/05/22 03:19:43;;;;;;;15.63;7.43;;;9.40;99.90;;;;;;5037702;28;20041;-52
2022/05/22 03:22:10;;;;;;;15.68;7.28;;;9.40;99.90;;;;;;5044061;28;20055;-53
2022/05/22 03:24:36;;;;;;;18.10;8.57;;;9.40;99.90;;;;;;5057512;28;20440;-53
2022/05/22 03:27:09;;;;;;;17.35;8.02;;;9.40;99.90;;;;;;5048898;28;20099;-53
2022/05/22 03:29:36;;;;;;;17.23;8.10;;;9.30;99.90;;;;;;5037217;28;20086;-53
2022/05/22 03:32:02;;;;;;;13.65;7.68;;;9.40;99.90;;;;;;5038261;28;20058;-53
2022/05/22 03:34:28;;;;;;;14.05;7.78;;;9.30;99.90;;;;;;5045457;28;20073;-51
2022/05/22 03:36:54;;;;;;;14.15;7.95;;;9.40;99.90;;;;;;5057582;28;20060;-53
2022/05/22 03:39:20;;;;;;;14.20;8.10;;;9.40;99.90;;;;;;5058178;28;20112;-52
2022/05/22 03:41:45;;;;;;;15.43;7.80;;;9.40;99.90;;;;;;5052179;28;20037;-53
2022/05/22 03:44:11;;;;;;;13.93;7.15;;;9.40;99.90;;;;;;5045255;28;20051;-53
2022/05/22 03:46:37;;;;;;;17.55;8.27;;;9.40;99.90;;;;;;5056778;28;20440;-52
2022/05/22 03:49:03;;;;;;;14.60;7.78;;;9.30;99.90;;;;;;5057997;28;20041;-53
2022/05/22 03:51:29;;;;;;;14.98;7.53;;;9.40;99.90;;;;;;5053330;28;20041;-52
2022/05/22 03:53:54;;;;;;;12.85;7.60;;;9.40;99.90;;;;;;5049337;28;20107;-52
2022/05/22 03:56:21;;;;;;;12.90;6.78;;;9.60;99.90;;;;;;5057367;28;20084;-51
2022/05/22 03:58:47;;;;;;;16.02;7.45;;;9.50;99.90;;;;;;5054570;28;20037;-53
2022/05/22 04:01:14;;;;;;;14.00;6.95;;;9.40;99.90;;;;;;5058025;28;20037;-52
2022/05/22 04:03:40;;;;;;;15.85;7.28;;;9.70;99.90;;;;;;5056639;28;20127;-53
2022/05/22 04:06:08;;;;;;;15.55;7.57;;;9.50;99.90;;;;;;5058056;28;20603;-54
2022/05/22 04:08:35;;;;;;;18.27;6.88;;;9.60;99.90;;;;;;5057309;28;20128;-53
2022/05/22 04:11:09;;;;;;;16.77;8.23;;;9.60;99.90;;;;;;5057471;28;20047;-53
2022/05/22 04:13:35;;;;;;;16.15;7.43;;;9.60;99.90;;;;;;5057835;28;20520;-53
2022/05/22 04:16:01;;;;;;;14.18;6.82;;;9.70;99.90;;;;;;5054775;28;20041;-53
2022/05/22 04:18:27;;;;;;;16.05;6.68;;;9.70;99.90;;;;;;5020117;28;20045;-51
2022/05/22 04:20:53;;;;;;;16.80;6.97;;;9.80;99.90;;;;;;5043690;28;20133;-55
2022/05/22 04:26:03;;;;;;;17.10;7.13;;;10.10;99.90;;;;;;5055372;28;20068;-51
2022/05/22 04:28:30;;;;;;;16.50;7.70;;;10.00;99.90;;;;;;5059764;28;20037;-54
2022/05/22 04:30:56;;;;;;;16.38;6.60;;;10.00;99.90;;;;;;5056668;28;20041;-51
2022/05/22 04:33:23;;;;;;;14.73;7.18;;;10.10;99.90;;;;;;5040223;28;20137;-53
2022/05/22 04:35:49;;;;;;;17.23;7.28;;;10.10;99.90;;;;;;5041586;28;20069;-52
2022/05/22 04:38:15;;;;;;;16.67;7.68;;;10.20;99.90;;;;;;5039949;28;20056;-52
2022/05/22 04:40:41;;;;;;;17.85;7.88;;;10.20;99.90;;;;;;5041021;28;20045;-53
2022/05/22 04:43:09;;;;;;;13.27;6.90;;;10.20;99.90;;;;;;5059458;28;20033;-52
2022/05/22 04:45:38;;;;;;;16.45;7.22;;;10.20;99.90;;;;;;5060545;28;20520;-52
2022/05/22 04:48:05;;;;;;;15.65;7.15;;;10.20;99.90;;;;;;5059408;28;20132;-52
2022/05/22 04:50:31;;;;;;;12.45;7.35;;;10.30;99.90;;;;;;5050499;28;20041;-54
2022/05/22 04:52:56;;;;;;;15.27;7.45;;;10.40;99.90;;;;;;5061281;28;20100;-53
2022/05/22 04:55:22;;;;;;;20.17;7.57;;;10.60;99.90;;;;;;5038025;28;20053;-53
2022/05/22 04:57:48;;;;;;;20.60;7.70;;;10.70;99.90;;;;;;5034820;28;20052;-53
2022/05/22 05:00:14;;;;;;;15.55;6.93;;;10.80;99.90;;;;;;5020828;28;20049;-53
2022/05/22 05:02:40;;;;;;;17.02;7.25;;;10.80;99.90;;;;;;5031844;28;20054;-53
2022/05/22 05:05:08;;;;;;;19.30;7.75;;;11.00;99.90;;;;;;5040953;28;20061;-53
2022/05/22 05:07:40;;;;;;;15.70;6.75;;;11.00;99.90;;;;;;5039568;28;20045;-53
2022/05/22 05:10:08;;;;;;;17.83;7.00;;;11.10;99.90;;;;;;5039615;28;20033;-54
2022/05/22 05:12:36;;;;;;;18.27;8.38;;;11.20;99.90;;;;;;5019825;28;20506;-53
2022/05/22 05:15:03;;;;;;;15.48;7.50;;;11.20;99.90;;;;;;5020639;28;20042;-53
2022/05/22 05:17:29;;;;;;;15.73;7.20;;;11.30;99.90;;;;;;5026953;28;20094;-53
2022/05/22 05:19:55;;;;;;;18.05;7.47;;;11.40;99.90;;;;;;5039996;28;20132;-53
2022/05/22 05:22:20;;;;;;;15.73;7.63;;;11.40;99.90;;;;;;5040368;28;20045;-54
2022/05/22 05:24:46;;;;;;;17.13;7.68;;;11.50;99.90;;;;;;5039370;28;20044;-54
2022/05/22 05:27:12;;;;;;;14.65;6.78;;;11.60;99.90;;;;;;5040591;28;20077;-54
2022/05/22 05:29:37;;;;;;;13.77;7.60;;;11.70;99.90;;;;;;5031510;28;20048;-55
2022/05/22 05:32:04;;;;;;;18.67;8.23;;;11.80;99.90;;;;;;5029978;28;20054;-54
2022/05/22 05:34:29;;;;;;;18.52;8.38;;;11.90;99.90;;;;;;5038581;28;20041;-54
2022/05/22 05:36:55;;;;;;;19.10;9.07;;;12.00;99.90;;;;;;5039415;28;20052;-54
2022/05/22 05:39:21;;;;;;;22.05;8.75;;;12.10;99.90;;;;;;5038825;28;20047;-54
2022/05/22 05:41:47;;;;;;;19.00;8.80;;;12.10;99.90;;;;;;5019108;28;20102;-54
2022/05/22 05:44:13;;;;;;;21.80;9.45;;;12.20;99.90;;;;;;5033342;28;20052;-54
2022/05/22 05:46:39;;;;;;;21.55;9.38;;;12.30;99.90;;;;;;5018886;28;20044;-54
2022/05/22 05:49:06;;;;;;;19.65;8.98;;;12.50;99.90;;;;;;5019784;28;20502;-54
2022/05/22 05:51:32;;;;;;;19.63;8.95;;;12.60;99.90;;;;;;5028328;28;20037;-54
2022/05/22 05:53:58;;;;;;;16.45;8.82;;;12.60;99.90;;;;;;5032127;28;20053;-54
2022/05/22 05:56:24;;;;;;;21.73;8.73;;;12.60;99.90;;;;;;5050729;28;20057;-51
2022/05/22 05:58:51;;;;;;;20.60;9.52;;;12.70;99.90;;;;;;5050484;28;20041;-52
2022/05/22 06:01:18;;;;;;;19.50;9.60;;;12.80;99.90;;;;;;5052320;28;20033;-51
2022/05/22 06:03:44;;;;;;;18.75;8.68;;;12.90;99.90;;;;;;5041426;28;20048;-54
2022/05/22 06:06:11;;;;;;;23.13;11.05;;;12.90;99.90;;;;;;5036353;28;20112;-52
2022/05/22 06:08:38;;;;;;;17.75;9.40;;;13.20;99.90;;;;;;5055043;28;20048;-53
2022/05/22 06:11:04;;;;;;;23.20;8.90;;;13.20;99.90;;;;;;5037963;28;20044;-52
2022/05/22 06:13:30;;;;;;;22.70;9.13;;;13.10;99.90;;;;;;5047937;28;20052;-55
2022/05/22 06:15:55;;;;;;;19.42;9.00;;;13.20;99.90;;;;;;5035422;28;20569;-52
2022/05/22 06:18:22;;;;;;;20.33;8.25;;;13.30;99.90;;;;;;5055026;28;20048;-53
2022/05/22 06:20:48;;;;;;;21.50;9.13;;;13.40;99.90;;;;;;5036181;28;20052;-53
2022/05/22 06:23:14;;;;;;;20.83;8.65;;;13.50;99.90;;;;;;5048451;28;20735;-53
2022/05/22 06:25:44;;;;;;;18.27;8.05;;;13.50;99.90;;;;;;5051360;28;20045;-52
2022/05/22 06:28:15;;;;;;;27.90;8.57;;;13.70;99.90;;;;;;5037311;28;20108;-51
2022/05/22 06:30:40;;;;;;;15.77;8.40;;;13.80;99.90;;;;;;5053684;28;20045;-52
2022/05/22 06:33:11;;;;;;;21.20;9.02;;;13.80;99.90;;;;;;5042901;28;20048;-53
2022/05/22 06:35:41;;;;;;;18.67;7.07;;;13.90;99.90;;;;;;5049132;28;20049;-53
2022/05/22 06:38:07;;;;;;;18.70;7.18;;;14.00;99.90;;;;;;5049855;28;20105;-53
2022/05/22 06:40:33;;;;;;;19.15;7.82;;;13.80;99.90;;;;;;5035301;28;20053;-53
2022/05/22 06:43:01;;;;;;;18.13;7.22;;;13.90;99.90;;;;;;5050606;28;20055;-56
2022/05/22 06:45:28;;;;;;;18.35;7.57;;;13.80;99.90;;;;;;5054825;28;20040;-53
2022/05/22 06:47:54;;;;;;;21.23;8.40;;;14.00;99.90;;;;;;5055334;28;20148;-52
2022/05/22 06:50:24;;;;;;;16.92;7.07;;;14.30;99.90;;;;;;5036713;28;20084;-53
2022/05/22 06:52:50;;;;;;;21.13;7.75;;;14.30;99.90;;;;;;5048848;28;20053;-53
2022/05/22 06:55:16;;;;;;;17.50;7.68;;;14.50;99.90;;;;;;5041858;28;20109;-54
2022/05/22 06:57:42;;;;;;;21.05;7.68;;;14.60;99.90;;;;;;5044615;28;20055;-53
2022/05/22 07:00:12;;;;;;;16.77;6.32;;;14.60;99.90;;;;;;5054973;28;20628;-53
2022/05/22 07:02:39;;;;;;;16.20;6.72;;;14.40;99.90;;;;;;5054177;28;20056;-54
2022/05/22 07:05:05;;;;;;;17.08;6.50;;;14.60;99.90;;;;;;5048318;28;20057;-53
2022/05/22 07:07:31;;;;;;;21.50;7.47;;;14.90;99.90;;;;;;5050307;28;20064;-54
2022/05/22 07:09:57;;;;;;;16.10;6.53;;;15.00;99.90;;;;;;5055331;28;20296;-53
2022/05/22 07:12:23;;;;;;;12.70;5.32;;;14.90;99.90;;;;;;5039012;28;20507;-52
2022/05/22 07:14:53;;;;;;;21.20;7.13;;;14.90;99.90;;;;;;5051697;28;20052;-52
2022/05/22 07:17:23;;;;;;;17.48;6.10;;;15.00;99.90;;;;;;5053152;28;20045;-52
2022/05/22 07:19:50;;;;;;;14.60;5.38;;;14.90;99.90;;;;;;5054054;28;20056;-53
2022/05/22 07:22:15;;;;;;;15.25;5.35;;;15.00;99.90;;;;;;5051661;28;20041;-54
2022/05/22 07:24:41;;;;;;;14.15;5.82;;;14.90;99.90;;;;;;5052965;28;20083;-54
2022/05/22 07:27:06;;;;;;;14.63;5.40;;;15.10;99.90;;;;;;5053566;28;20036;-53
2022/05/22 07:29:33;;;;;;;15.93;5.32;;;15.30;99.90;;;;;;5053491;28;20080;-53
2022/05/22 07:31:59;;;;;;;16.77;4.55;;;15.40;99.90;;;;;;5017514;28;20041;-53
2022/05/22 07:34:25;;;;;;;16.23;5.85;;;15.40;99.90;;;;;;5017767;28;20048;-52
2022/05/22 07:36:56;;;;;;;11.25;3.97;;;15.40;99.90;;;;;;5046002;28;20051;-54
2022/05/22 07:39:22;;;;;;;12.43;4.10;;;15.40;99.90;;;;;;5054756;28;20073;-53
2022/05/22 07:41:48;;;;;;;14.85;4.97;;;15.50;99.90;;;;;;5043157;28;20045;-51
2022/05/22 07:44:13;;;;;;;15.05;5.70;;;15.60;99.90;;;;;;5034788;28;20045;-51
2022/05/22 07:46:39;;;;;;;10.68;4.22;;;15.60;99.90;;;;;;5053897;28;20045;-50
2022/05/22 07:49:05;;;;;;;13.65;4.53;;;15.60;99.90;;;;;;5054541;28;20681;-52
2022/05/22 07:51:30;;;;;;;11.02;4.07;;;15.80;99.90;;;;;;5054256;28;20053;-51
2022/05/22 07:53:56;;;;;;;13.57;3.67;;;15.70;99.90;;;;;;5035633;28;20666;-52
2022/05/22 07:56:22;;;;;;;11.40;3.22;;;15.90;99.90;;;;;;5051876;28;20057;-52
2022/05/22 07:58:50;;;;;;;11.65;3.60;;;16.10;99.90;;;;;;5048824;28;20049;-53
2022/05/22 08:01:19;;;;;;;11.52;3.50;;;16.10;99.90;;;;;;5060350;28;20069;-52
2022/05/22 08:03:45;;;;;;;12.00;3.97;;;16.00;99.90;;;;;;5060854;28;20133;-53
2022/05/22 08:06:11;;;;;;;10.63;2.45;;;15.70;99.90;;;;;;5056443;28;20099;-52
2022/05/22 08:08:38;;;;;;;12.57;2.40;;;15.90;99.90;;;;;;5043634;28;20096;-52
2022/05/22 08:11:04;;;;;;;7.40;1.95;;;16.10;99.90;;;;;;5043004;28;20042;-52
2022/05/22 08:13:30;;;;;;;8.45;2.30;;;16.00;99.90;;;;;;5052639;28;20124;-51
2022/05/22 08:15:55;;;;;;;8.32;2.35;;;16.20;99.90;;;;;;5040776;28;20095;-52
2022/05/22 08:18:21;;;;;;;9.18;2.33;;;16.30;99.90;;;;;;5041223;28;20041;-54
2022/05/22 08:20:49;;;;;;;13.13;2.70;;;16.50;99.90;;;;;;5040324;28;20053;-53
2022/05/22 08:23:19;;;;;;;8.38;2.00;;;16.10;99.90;;;;;;5041652;28;20037;-52
2022/05/22 08:25:47;;;;;;;9.15;2.15;;;16.10;99.90;;;;;;5053146;28;20045;-53
2022/05/22 08:28:13;;;;;;;7.95;2.38;;;16.50;99.90;;;;;;5052294;28;20129;-52
2022/05/22 08:30:39;;;;;;;9.55;2.38;;;16.20;99.90;;;;;;5061479;28;20049;-52
2022/05/22 08:33:06;;;;;;;8.43;2.33;;;16.10;99.90;;;;;;5060261;28;20128;-52
2022/05/22 08:35:37;;;;;;;8.10;1.92;;;16.20;99.90;;;;;;5041639;28;20040;-52
2022/05/22 08:38:03;;;;;;;9.30;2.10;;;16.30;99.90;;;;;;5050250;28;20041;-52
2022/05/22 08:40:56;;;;;;;10.88;2.60;;;16.60;99.90;;;;;;5058562;28;20291;-54
2022/05/22 08:43:48;;;;;;;10.30;2.30;;;16.60;99.90;;;;;;5034102;28;20092;-52
2022/05/22 08:46:22;;;;;;;9.75;2.40;;;16.70;99.90;;;;;;5038869;28;20064;-50
2022/05/22 08:49:01;;;;;;;8.93;1.98;;;16.60;99.90;;;;;;5057538;28;20095;-53
2022/05/22 08:51:40;;;;;;;9.13;2.13;;;16.60;99.90;;;;;;5037108;28;20045;-50
2022/05/22 08:54:31;;;;;;;8.07;1.95;;;16.70;99.90;;;;;;5036855;28;20221;-52
2022/05/22 08:59:48;;;;;;;12.15;2.10;;;16.80;99.90;;;;;;5035388;28;20050;-54
2022/05/22 09:02:34;;;;;;;7.25;2.28;;;17.00;99.90;;;;;;5034945;28;20037;-52
2022/05/22 09:05:12;;;;;;;8.98;2.03;;;16.90;99.90;;;;;;5035486;28;20049;-53
2022/05/22 09:07:50;;;;;;;11.63;2.13;;;16.70;99.90;;;;;;5025247;28;20108;-54
2022/05/22 09:10:23;;;;;;;11.13;2.38;;;16.80;99.90;;;;;;5019938;28;20075;-52
2022/05/22 09:13:08;;;;;;;9.38;2.30;;;17.00;99.90;;;;;;5022419;28;20080;-51
2022/05/22 09:15:47;;;;;;;9.48;2.45;;;17.20;99.90;;;;;;5023129;28;20084;-52
2022/05/22 09:18:29;;;;;;;9.30;2.60;;;16.90;99.90;;;;;;5034042;28;20115;-51
2022/05/22 09:20:56;;;;;;;10.73;2.40;;;17.10;99.90;;;;;;5024075;28;20045;-54
2022/05/22 09:23:44;;;;;;;10.32;2.88;;;17.10;99.90;;;;;;5035706;28;20123;-53
2022/05/22 09:26:11;;;;;;;10.95;3.17;;;17.10;99.90;;;;;;5020449;28;20109;-54
2022/05/22 09:28:39;;;;;;;7.57;2.35;;;17.30;99.90;;;;;;5016559;28;20046;-52
2022/05/22 09:31:44;;;;;;;13.27;3.42;;;17.50;99.90;;;;;;5023578;28;20045;-54
2022/05/22 09:34:18;;;;;;;8.35;2.60;;;17.60;99.90;;;;;;5032256;28;20061;-52
2022/05/22 09:37:21;;;;;;;12.63;3.40;;;17.20;99.90;;;;;;5036400;28;20208;-54
2022/05/22 09:39:53;;;;;;;10.25;3.10;;;17.20;99.90;;;;;;5036340;28;20102;-52
2022/05/22 09:42:46;;;;;;;9.65;2.92;;;17.10;99.90;;;;;;5024502;28;20046;-53
2022/05/22 09:45:50;;;;;;;11.68;3.50;;;17.10;99.90;;;;;;5016458;28;20058;-53
2022/05/22 09:48:37;;;;;;;8.73;2.90;;;17.30;99.90;;;;;;5026041;28;20050;-53
2022/05/22 09:51:15;;;;;;;12.13;3.42;;;17.60;99.90;;;;;;5028199;28;20046;-53
2022/05/22 09:54:01;;;;;;;10.02;3.65;;;17.40;99.90;;;;;;5035399;28;20068;-52
2022/05/22 09:56:53;;;;;;;9.65;3.50;;;17.70;99.90;;;;;;5052575;28;20041;-53
2022/05/22 09:59:37;;;;;;;11.60;3.17;;;17.80;99.90;;;;;;5052130;28;20049;-53
2022/05/22 10:02:14;;;;;;;8.90;3.17;;;18.10;99.90;;;;;;5056312;28;20041;-53
2022/05/22 10:05:02;;;;;;;11.82;3.30;;;18.40;99.90;;;;;;5039680;28;20499;-53
2022/05/22 10:07:43;;;;;;;8.68;2.95;;;18.50;99.90;;;;;;5047106;28;20435;-50
2022/05/22 10:10:31;;;;;;;9.20;2.70;;;18.50;99.90;;;;;;5051451;28;20087;-52
2022/05/22 10:13:24;;;;;;;10.75;2.67;;;18.30;99.90;;;;;;5050044;28;20066;-54
2022/05/22 10:16:27;;;;;;;8.45;2.60;;;17.90;99.90;;;;;;5050203;28;20045;-51
2022/05/22 10:19:07;;;;;;;12.18;2.90;;;17.90;99.90;;;;;;5050970;28;20053;-52
2022/05/22 10:21:57;;;;;;;10.23;3.30;;;17.70;99.90;;;;;;5049565;28;20095;-51
2022/05/22 10:24:26;;;;;;;7.68;2.17;;;17.50;99.90;;;;;;5050668;28;20036;-52
2022/05/22 10:27:10;;;;;;;8.48;2.03;;;17.40;99.90;;;;;;5033838;28;20087;-54
2022/05/22 10:30:06;;;;;;;9.43;2.17;;;17.50;99.90;;;;;;5050160;28;20048;-52
2022/05/22 10:32:45;;;;;;;6.72;2.08;;;17.60;99.90;;;;;;5050935;28;20098;-52
2022/05/22 10:35:25;;;;;;;10.60;2.00;;;17.90;99.90;;;;;;5050721;28;20033;-50
2022/05/22 10:38:01;;;;;;;9.55;2.15;;;18.00;99.90;;;;;;5049793;28;20077;-50
2022/05/22 10:42:44;;;;;;;7.72;2.95;;;18.40;99.90;;;;;;5050539;28;20492;-51
2022/05/22 10:43:13;;;;;;;6.95;2.10;;;18.20;99.90;;;;;;5049903;28;20041;-52
2022/05/22 10:45:38;;;;;;;7.50;2.30;;;18.40;99.90;;;;;;5049534;28;20045;-52
2022/05/22 10:48:19;;;;;;;10.60;2.55;;;18.50;99.90;;;;;;5051097;28;20067;-50
2022/05/22 10:51:06;;;;;;;8.38;1.92;;;18.50;99.90;;;;;;5050037;28;20043;-50
2022/05/22 10:53:50;;;;;;;8.18;2.72;;;18.60;99.90;;;;;;5049849;28;20037;-53
2022/05/22 10:56:38;;;;;;;8.68;2.20;;;18.70;99.90;;;;;;5051316;28;20069;-52
2022/05/22 10:59:18;;;;;;;9.98;2.40;;;18.70;99.90;;;;;;5049907;28;20076;-49
2022/05/22 11:01:43;;;;;;;10.27;2.72;;;18.60;99.90;;;;;;5050903;28;20056;-53
2022/05/22 11:04:10;;;;;;;7.25;2.58;;;18.50;99.90;;;;;;5050606;28;20041;-50
2022/05/22 11:06:58;;;;;;;8.75;2.63;;;18.40;99.90;;;;;;5050276;28;20047;-52
2022/05/22 11:09:26;;;;;;;8.88;2.63;;;18.40;99.90;;;;;;5049766;28;20088;-52
2022/05/22 11:12:02;;;;;;;7.97;2.05;;;18.30;99.90;;;;;;5049646;28;20045;-50
2022/05/22 11:14:32;;;;;;;7.97;2.50;;;18.30;99.90;;;;;;5051019;28;20044;-50
2022/05/22 11:17:11;;;;;;;7.57;2.30;;;18.30;99.90;;;;;;5049632;28;20052;-51
2022/05/22 11:19:41;;;;;;;7.55;2.35;;;18.60;99.90;;;;;;5049065;28;20055;-51
2022/05/22 11:22:27;;;;;;;10.73;2.58;;;18.60;99.90;;;;;;5050823;28;20049;-52
2022/05/22 11:25:31;;;;;;;7.30;2.50;;;18.80;99.90;;;;;;5049571;28;20400;-53
2022/05/22 11:28:16;;;;;;;10.68;2.67;;;19.20;99.90;;;;;;5048984;28;20051;-53
2022/05/22 11:30:54;;;;;;;8.77;2.40;;;19.30;99.90;;;;;;5050198;28;20043;-52
2022/05/22 11:33:30;;;;;;;6.72;2.28;;;19.60;99.90;;;;;;5052853;28;20099;-53
2022/05/22 11:36:40;;;;;;;7.07;2.20;;;19.60;99.90;;;;;;5053558;28;20037;-52
2022/05/22 11:39:35;;;;;;;10.18;2.38;;;19.30;99.90;;;;;;5038254;28;20087;-53
2022/05/22 11:42:12;;;;;;;10.93;2.70;;;19.30;99.90;;;;;;5053367;28;20049;-52
2022/05/22 11:44:48;;;;;;;9.95;2.25;;;19.50;99.90;;;;;;5054483;28;20076;-51
2022/05/22 11:47:41;;;;;;;9.98;2.60;;;19.40;99.90;;;;;;5053175;28;20082;-52
2022/05/22 11:50:37;;;;;;;10.27;2.50;;;19.30;99.90;;;;;;5052609;28;20053;-53
2022/05/22 11:53:31;;;;;;;10.30;2.70;;;19.20;99.90;;;;;;5052544;28;20086;-52
2022/05/22 11:56:25;;;;;;;10.23;2.85;;;19.20;99.90;;;;;;5053394;28;20060;-50
2022/05/22 11:58:54;;;;;;;8.27;2.28;;;19.20;99.90;;;;;;5052018;28;20060;-53
2022/05/22 12:01:27;;;;;;;7.35;2.45;;;19.20;99.90;;;;;;5053227;28;20053;-53
2022/05/22 12:04:20;;;;;;;10.00;2.45;;;19.50;99.90;;;;;;5052336;28;20163;-55
2022/05/22 12:07:07;;;;;;;8.05;1.92;;;19.70;99.90;;;;;;5049958;28;20053;-54
2022/05/22 12:09:57;;;;;;;8.27;2.10;;;20.00;99.90;;;;;;5051368;28;20056;-53
2022/05/22 12:12:49;;;;;;;8.73;2.33;;;20.10;99.90;;;;;;5050051;28;20044;-54
2022/05/22 12:15:42;;;;;;;7.95;2.28;;;19.90;99.90;;;;;;5057631;28;20111;-52
2022/05/22 12:18:31;;;;;;;8.15;2.20;;;19.80;99.90;;;;;;5057935;28;20052;-51
2022/05/22 12:21:17;;;;;;;7.88;2.45;;;19.70;99.90;;;;;;5057645;28;20131;-52
2022/05/22 12:23:53;;;;;;;6.93;1.83;;;19.60;99.90;;;;;;5055568;28;20728;-54
2022/05/22 12:26:22;;;;;;;7.43;1.92;;;19.50;99.90;;;;;;5052982;28;20064;-52
2022/05/22 12:29:04;;;;;;;6.60;1.80;;;19.40;99.90;;;;;;5047764;28;20105;-53
2022/05/22 12:32:04;;;;;;;7.70;2.03;;;19.50;99.90;;;;;;5028686;28;20470;-52
2022/05/22 12:34:40;;;;;;;8.57;2.00;;;19.40;99.90;;;;;;5025578;28;20089;-51
2022/05/22 12:37:15;;;;;;;6.85;2.40;;;19.20;99.90;;;;;;5037412;28;20488;-52
2022/05/22 12:39:47;;;;;;;6.30;1.67;;;19.20;99.90;;;;;;5038159;28;20053;-53
2022/05/22 12:42:18;;;;;;;8.50;1.80;;;19.30;99.90;;;;;;5036369;28;20446;-53
2022/05/22 12:44:44;;;;;;;7.28;1.67;;;19.40;99.90;;;;;;5036989;28;20037;-52
2022/05/22 12:47:13;;;;;;;11.05;2.10;;;19.40;99.90;;;;;;5037567;28;20084;-51
2022/05/22 12:49:40;;;;;;;7.57;2.17;;;19.40;99.90;;;;;;5019372;28;20073;-52
2022/05/22 12:52:30;;;;;;;8.23;1.75;;;19.30;99.90;;;;;;5037723;28;20045;-49
2022/05/22 12:55:02;;;;;;;8.95;1.65;;;19.40;99.90;;;;;;5038581;28;20049;-52
2022/05/22 12:57:28;;;;;;;;;;;19.20;99.90;;;;;;5058149;28;20069;-53
2022/05/22 12:59:58;;;;;;;6.63;1.70;;;19.30;99.90;;;;;;5057302;28;19931;-53
2022/05/22 13:02:45;;;;;;;7.18;2.03;;;19.30;99.90;;;;;;5043339;28;20041;-53
2022/05/22 13:05:28;;;;;;;6.70;1.90;;;19.40;99.90;;;;;;5051466;28;20071;-52
2022/05/22 13:07:54;;;;;;;5.53;1.90;;;19.40;99.90;;;;;;5053733;28;20053;-53
2022/05/22 13:10:44;;;;;;;6.65;1.80;;;19.60;99.90;;;;;;5057375;28;20501;-53